Time,TemperatureF,DewpointF,PressureIn,WindDirection,WindDirectionDegrees,WindSpeedMPH,WindSpeedGustMPH,Humidity,HourlyPrecipIn,Conditions,Clouds,dailyrainin,SoftwareType,DateUTC
2013-03-04 00:00:00,32.5,25.1,30.17,North,0,0.0,0.0,74,0.00,,,0.00,WUHU21623XXSP,2013-03-04 06:00:00,
2013-03-04 00:05:00,32.5,25.1,30.17,North,0,0.0,0.0,74,0.00,,,0.00,WUHU21623XXSP,2013-03-04 06:05:00,
2013-03-04 00:11:00,32.5,25.1,30.17,North,0,0.0,0.0,74,0.00,,,0.00,WUHU21623XXSP,2013-03-04 06:11:00,
2013-03-04 00:16:00,32.2,24.8,30.17,North,0,0.0,0.0,74,0.00,,,0.00,WUHU21623XXSP,2013-03-04 06:16:00,
2013-03-04 00:21:00,32.2,24.8,30.17,North,0,0.0,0.0,74,0.00,,,0.00,WUHU21623XXSP,2013-03-04 06:21:00,
2013-03-04 00:26:00,32.2,25.1,30.16,North,0,0.0,0.0,75,0.00,,,0.00,WUHU21623XXSP,2013-03-04 06:26:00,
2013-03-04 00:31:00,32.2,25.1,30.16,North,0,0.0,0.0,75,0.00,,,0.00,WUHU21623XXSP,2013-03-04 06:31:00,
2013-03-04 00:36:00,32.2,25.1,30.16,North,0,0.0,0.0,75,0.00,,,0.00,WUHU21623XXSP,2013-03-04 06:36:00,
2013-03-04 00:41:00,32.0,25.1,30.16,North,0,0.0,0.0,75,0.00,,,0.00,WUHU21623XXSP,2013-03-04 06:41:00,
2013-03-04 00:46:00,31.8,24.8,30.16,North,0,0.0,0.0,75,0.00,,,0.00,WUHU21623XXSP,2013-03-04 06:46:00,
2013-03-04 00:51:00,31.8,24.8,30.16,North,0,0.0,0.0,75,0.00,,,0.00,WUHU21623XXSP,2013-03-04 06:51:00,
2013-03-04 00:56:00,31.8,25.1,30.16,North,0,0.0,0.0,76,0.00,,,0.00,WUHU21623XXSP,2013-03-04 06:56:00,
2013-03-04 01:01:00,31.8,25.1,30.16,North,0,0.0,0.0,76,0.00,,,0.00,WUHU21623XXSP,2013-03-04 07:01:00,
2013-03-04 01:11:00,31.8,25.1,30.16,North,0,0.0,0.0,76,0.00,,,0.00,WUHU21623XXSP,2013-03-04 07:11:00,
2013-03-04 01:16:00,31.8,25.4,30.16,North,0,0.0,0.0,77,0.00,,,0.00,WUHU21623XXSP,2013-03-04 07:16:00,
2013-03-04 01:21:00,31.8,25.4,30.15,North,0,0.0,0.0,77,0.00,,,0.00,WUHU21623XXSP,2013-03-04 07:21:00,
2013-03-04 01:26:00,31.6,25.3,30.15,North,0,0.0,0.0,77,0.00,,,0.00,WUHU21623XXSP,2013-03-04 07:26:00,
2013-03-04 01:31:00,31.8,25.4,30.16,North,0,0.0,0.0,77,0.00,,,0.00,WUHU21623XXSP,2013-03-04 07:31:00,
2013-03-04 01:36:00,31.6,25.3,30.16,North,0,0.0,0.0,77,0.00,,,0.00,WUHU21623XXSP,2013-03-04 07:36:00,
2013-03-04 01:41:00,31.6,25.3,30.16,North,0,0.0,0.0,77,0.00,,,0.00,WUHU21623XXSP,2013-03-04 07:41:00,
2013-03-04 01:46:00,31.6,25.6,30.16,North,0,0.0,0.0,78,0.00,,,0.00,WUHU21623XXSP,2013-03-04 07:46:00,
2013-03-04 01:51:00,31.6,25.6,30.15,North,0,0.0,0.0,78,0.00,,,0.00,WUHU21623XXSP,2013-03-04 07:51:00,
2013-03-04 01:56:00,31.6,25.6,30.15,North,0,0.0,0.0,78,0.00,,,0.00,WUHU21623XXSP,2013-03-04 07:56:00,
2013-03-04 02:01:00,31.6,25.6,30.16,North,0,0.0,0.0,78,0.00,,,0.00,WUHU21623XXSP,2013-03-04 08:01:00,
2013-03-04 02:11:00,31.6,25.6,30.15,North,0,0.0,0.0,78,0.00,,,0.00,WUHU21623XXSP,2013-03-04 08:11:00,
2013-03-04 02:16:00,31.3,25.2,30.15,North,0,0.0,0.0,78,0.00,,,0.00,WUHU21623XXSP,2013-03-04 08:16:00,
2013-03-04 02:21:00,31.3,25.2,30.14,North,0,0.0,0.0,78,0.00,,,0.00,WUHU21623XXSP,2013-03-04 08:21:00,
2013-03-04 02:26:00,31.3,25.2,30.15,North,0,0.0,0.0,78,0.00,,,0.00,WUHU21623XXSP,2013-03-04 08:26:00,
2013-03-04 02:31:00,31.3,25.2,30.14,North,0,0.0,0.0,78,0.00,,,0.00,WUHU21623XXSP,2013-03-04 08:31:00,
2013-03-04 02:36:00,31.3,25.6,30.14,North,0,0.0,0.0,79,0.00,,,0.00,WUHU21623XXSP,2013-03-04 08:36:00,
2013-03-04 02:41:00,31.3,25.6,30.14,North,0,0.0,0.0,79,0.00,,,0.00,WUHU21623XXSP,2013-03-04 08:41:00,
2013-03-04 02:46:00,31.3,25.6,30.14,North,0,0.0,0.0,79,0.00,,,0.00,WUHU21623XXSP,2013-03-04 08:46:00,
2013-03-04 02:51:00,31.1,25.4,30.14,North,0,0.0,0.0,79,0.00,,,0.00,WUHU21623XXSP,2013-03-04 08:51:00,
2013-03-04 02:56:00,31.1,25.4,30.14,North,0,0.0,0.0,79,0.00,,,0.00,WUHU21623XXSP,2013-03-04 08:56:00,
2013-03-04 03:01:00,31.1,25.4,30.14,North,0,0.0,0.0,79,0.00,,,0.00,WUHU21623XXSP,2013-03-04 09:01:00,
2013-03-04 03:06:00,31.1,25.4,30.15,North,0,0.0,0.0,79,0.00,,,0.00,WUHU21623XXSP,2013-03-04 09:06:00,
2013-03-04 03:11:00,31.1,25.7,30.15,North,0,0.0,0.0,80,0.00,,,0.00,WUHU21623XXSP,2013-03-04 09:11:00,
2013-03-04 03:16:00,31.3,26.2,30.15,North,0,0.0,0.0,81,0.00,,,0.00,WUHU21623XXSP,2013-03-04 09:16:00,
2013-03-04 03:21:00,31.3,26.0,30.15,North,0,0.0,0.0,81,0.00,,,0.00,WUHU21623XXSP,2013-03-04 09:21:00,
2013-03-04 03:26:00,31.1,26.0,30.14,North,0,0.0,0.0,81,0.00,,,0.00,WUHU21623XXSP,2013-03-04 09:26:00,
2013-03-04 03:31:00,31.1,25.7,30.14,North,0,0.0,0.0,80,0.00,,,0.00,WUHU21623XXSP,2013-03-04 09:31:00,
2013-03-04 03:36:00,30.9,25.5,30.14,North,0,0.0,0.0,80,0.00,,,0.00,WUHU21623XXSP,2013-03-04 09:36:00,
2013-03-04 03:41:00,30.9,25.5,30.14,North,0,0.0,0.0,80,0.00,,,0.00,WUHU21623XXSP,2013-03-04 09:41:00,
2013-03-04 03:46:00,30.9,25.5,30.15,North,0,0.0,0.0,80,0.00,,,0.00,WUHU21623XXSP,2013-03-04 09:46:00,
2013-03-04 03:51:00,30.9,25.8,30.15,North,0,0.0,0.0,81,0.00,,,0.00,WUHU21623XXSP,2013-03-04 09:51:00,
2013-03-04 03:56:00,30.7,25.8,30.16,North,0,0.0,0.0,81,0.00,,,0.00,WUHU21623XXSP,2013-03-04 09:56:00,
2013-03-04 04:01:00,30.7,25.6,30.16,North,0,0.0,0.0,81,0.00,,,0.00,WUHU21623XXSP,2013-03-04 10:01:00,
2013-03-04 04:06:00,30.7,25.6,30.15,North,0,0.0,0.0,81,0.00,,,0.00,WUHU21623XXSP,2013-03-04 10:06:00,
2013-03-04 04:11:00,30.7,25.6,30.15,North,0,0.0,0.0,81,0.00,,,0.00,WUHU21623XXSP,2013-03-04 10:11:00,
2013-03-04 04:16:00,30.7,25.6,30.15,North,0,0.0,0.0,81,0.00,,,0.00,WUHU21623XXSP,2013-03-04 10:16:00,
2013-03-04 04:21:00,30.7,25.6,30.15,North,0,0.0,0.0,81,0.00,,,0.00,WUHU21623XXSP,2013-03-04 10:21:00,
2013-03-04 04:26:00,30.7,25.6,30.15,North,0,0.0,0.0,81,0.00,,,0.00,WUHU21623XXSP,2013-03-04 10:26:00,
2013-03-04 04:31:00,30.7,25.6,30.15,North,0,0.0,0.0,81,0.00,,,0.00,WUHU21623XXSP,2013-03-04 10:31:00,
2013-03-04 04:36:00,30.7,25.6,30.15,North,0,0.0,0.0,81,0.00,,,0.00,WUHU21623XXSP,2013-03-04 10:36:00,
2013-03-04 04:41:00,30.7,25.6,30.15,North,0,0.0,0.0,81,0.00,,,0.00,WUHU21623XXSP,2013-03-04 10:41:00,
2013-03-04 04:46:00,30.7,25.6,30.15,North,0,0.0,0.0,81,0.00,,,0.00,WUHU21623XXSP,2013-03-04 10:46:00,
2013-03-04 04:51:00,30.7,25.6,30.16,North,0,0.0,0.0,81,0.00,,,0.00,WUHU21623XXSP,2013-03-04 10:51:00,
2013-03-04 04:56:00,30.7,25.6,30.16,North,0,0.0,0.0,81,0.00,,,0.00,WUHU21623XXSP,2013-03-04 10:56:00,
2013-03-04 05:01:00,30.7,25.9,30.16,North,0,0.0,0.0,82,0.00,,,0.00,WUHU21623XXSP,2013-03-04 11:01:00,
2013-03-04 05:06:00,30.7,25.9,30.15,North,0,0.0,0.0,82,0.00,,,0.00,WUHU21623XXSP,2013-03-04 11:06:00,
2013-03-04 05:11:00,30.7,25.9,30.16,North,0,0.0,0.0,82,0.00,,,0.00,WUHU21623XXSP,2013-03-04 11:11:00,
2013-03-04 05:16:00,30.7,25.9,30.15,North,0,0.0,0.0,82,0.00,,,0.00,WUHU21623XXSP,2013-03-04 11:16:00,
2013-03-04 05:21:00,30.6,25.9,30.16,North,0,0.0,0.0,82,0.00,,,0.00,WUHU21623XXSP,2013-03-04 11:21:00,
2013-03-04 05:26:00,30.6,25.7,30.16,North,0,0.0,0.0,82,0.00,,,0.00,WUHU21623XXSP,2013-03-04 11:26:00,
2013-03-04 05:31:00,30.6,25.7,30.16,North,0,0.0,0.0,82,0.00,,,0.00,WUHU21623XXSP,2013-03-04 11:31:00,
2013-03-04 05:36:00,30.6,26.0,30.16,North,0,0.0,0.0,83,0.00,,,0.00,WUHU21623XXSP,2013-03-04 11:36:00,
2013-03-04 05:41:00,30.4,25.8,30.16,North,0,0.0,0.0,83,0.00,,,0.00,WUHU21623XXSP,2013-03-04 11:41:00,
2013-03-04 05:46:00,30.4,25.8,30.16,North,0,0.0,0.0,83,0.00,,,0.00,WUHU21623XXSP,2013-03-04 11:46:00,
2013-03-04 05:51:00,30.4,25.8,30.16,North,0,0.0,0.0,83,0.00,,,0.00,WUHU21623XXSP,2013-03-04 11:51:00,
2013-03-04 05:56:00,30.4,25.8,30.16,North,0,0.0,0.0,83,0.00,,,0.00,WUHU21623XXSP,2013-03-04 11:56:00,
2013-03-04 06:01:00,30.4,25.8,30.16,North,0,0.0,0.0,83,0.00,,,0.00,WUHU21623XXSP,2013-03-04 12:01:00,
2013-03-04 06:06:00,30.4,25.8,30.16,North,0,0.0,0.0,83,0.00,,,0.00,WUHU21623XXSP,2013-03-04 12:06:00,
2013-03-04 06:11:00,30.2,25.7,30.16,North,0,0.0,0.0,83,0.00,,,0.00,WUHU21623XXSP,2013-03-04 12:11:00,
2013-03-04 06:16:00,30.2,25.7,30.16,North,0,0.0,0.0,83,0.00,,,0.00,WUHU21623XXSP,2013-03-04 12:16:00,
2013-03-04 06:21:00,30.2,25.7,30.16,North,0,0.0,0.0,83,0.00,,,0.00,WUHU21623XXSP,2013-03-04 12:21:00,
2013-03-04 06:26:00,30.2,25.7,30.16,North,0,0.0,0.0,83,0.00,,,0.00,WUHU21623XXSP,2013-03-04 12:26:00,
2013-03-04 06:31:00,30.0,25.5,30.16,North,0,0.0,0.0,83,0.00,,,0.00,WUHU21623XXSP,2013-03-04 12:31:00,
2013-03-04 06:36:00,30.2,25.7,30.16,North,0,0.0,0.0,83,0.00,,,0.00,WUHU21623XXSP,2013-03-04 12:36:00,
2013-03-04 06:41:00,30.2,25.7,30.16,North,0,0.0,0.0,83,0.00,,,0.00,WUHU21623XXSP,2013-03-04 12:41:00,
2013-03-04 06:46:00,30.2,25.7,30.17,North,0,0.0,0.0,83,0.00,,,0.00,WUHU21623XXSP,2013-03-04 12:46:00,
2013-03-04 06:48:00,30.4,25.8,30.16,North,0,0.0,0.0,83,0.00,,,0.00,WUHU21623XXSP,2013-03-04 12:48:00,
2013-03-04 07:00:00,30.6,26.0,30.16,North,0,0.0,0.0,83,0.00,,,0.00,WUHU21623XXSP,2013-03-04 13:00:00,
2013-03-04 07:05:00,30.9,26.7,30.17,North,0,0.0,0.0,84,0.00,,,0.00,WUHU21623XXSP,2013-03-04 13:05:00,
2013-03-04 07:10:00,31.1,26.9,30.17,North,0,0.0,0.0,84,0.00,,,0.00,WUHU21623XXSP,2013-03-04 13:10:00,
2013-03-04 07:15:00,31.3,27.0,30.17,North,0,0.0,0.0,84,0.00,,,0.00,WUHU21623XXSP,2013-03-04 13:15:00,
2013-03-04 07:20:00,31.8,27.9,30.17,North,0,0.0,0.0,85,0.00,,,0.00,WUHU21623XXSP,2013-03-04 13:20:00,
2013-03-04 07:25:00,32.2,28.2,30.17,North,0,0.0,0.0,85,0.00,,,0.00,WUHU21623XXSP,2013-03-04 13:25:00,
2013-03-04 07:30:00,32.5,28.5,30.18,North,0,0.0,0.0,85,0.00,,,0.00,WUHU21623XXSP,2013-03-04 13:30:00,
2013-03-04 07:35:00,33.1,29.0,30.18,North,0,0.0,0.0,85,0.00,,,0.00,WUHU21623XXSP,2013-03-04 13:35:00,
2013-03-04 07:40:00,33.6,29.5,30.18,North,0,0.0,0.0,85,0.00,,,0.00,WUHU21623XXSP,2013-03-04 13:40:00,
2013-03-04 07:45:00,34.0,30.1,30.18,North,0,0.0,0.0,86,0.00,,,0.00,WUHU21623XXSP,2013-03-04 13:45:00,
2013-03-04 07:50:00,34.5,30.7,30.18,North,0,0.0,0.0,86,0.00,,,0.00,WUHU21623XXSP,2013-03-04 13:50:00,
2013-03-04 07:55:00,35.4,31.7,30.18,North,0,0.0,0.0,87,0.00,,,0.00,WUHU21623XXSP,2013-03-04 13:55:00,
2013-03-04 08:00:00,36.0,32.2,30.18,North,0,0.0,0.0,87,0.00,,,0.00,WUHU21623XXSP,2013-03-04 14:00:00,
2013-03-04 08:05:00,37.0,33.8,30.18,North,0,0.0,0.0,88,0.00,,,0.00,WUHU21623XXSP,2013-03-04 14:05:00,
2013-03-04 08:10:00,37.6,33.9,30.18,North,0,0.0,0.0,88,0.00,,,0.00,WUHU21623XXSP,2013-03-04 14:10:00,
2013-03-04 08:15:00,38.5,35.2,30.18,North,0,0.0,0.0,88,0.00,,,0.00,WUHU21623XXSP,2013-03-04 14:15:00,
2013-03-04 08:20:00,39.7,36.4,30.18,North,0,0.0,0.0,90,0.00,,,0.00,WUHU21623XXSP,2013-03-04 14:20:00,
2013-03-04 08:25:00,40.8,38.1,30.18,North,0,0.0,0.0,90,0.00,,,0.00,WUHU21623XXSP,2013-03-04 14:25:00,
2013-03-04 08:30:00,41.7,39.0,30.18,North,0,0.0,0.0,90,0.00,,,0.00,WUHU21623XXSP,2013-03-04 14:30:00,
2013-03-04 08:35:00,43.5,40.0,30.18,North,0,0.0,0.0,89,0.00,,,0.00,WUHU21623XXSP,2013-03-04 14:35:00,
2013-03-04 08:40:00,44.8,41.2,30.18,North,0,0.0,0.0,88,0.00,,,0.00,WUHU21623XXSP,2013-03-04 14:40:00,
2013-03-04 08:45:00,45.7,42.1,30.18,North,0,0.0,0.0,87,0.00,,,0.00,WUHU21623XXSP,2013-03-04 14:45:00,
2013-03-04 08:50:00,46.2,42.3,30.18,North,0,0.0,0.0,86,0.00,,,0.00,WUHU21623XXSP,2013-03-04 14:50:00,
2013-03-04 08:55:00,47.3,42.7,30.18,North,0,0.0,0.0,84,0.00,,,0.00,WUHU21623XXSP,2013-03-04 14:55:00,
2013-03-04 09:00:00,48.0,43.4,30.18,North,0,0.0,0.0,84,0.00,,,0.00,WUHU21623XXSP,2013-03-04 15:00:00,
2013-03-04 09:05:00,49.1,43.8,30.18,North,0,0.0,0.0,82,0.00,,,0.00,WUHU21623XXSP,2013-03-04 15:05:00,
2013-03-04 09:10:00,49.8,44.5,30.18,North,0,0.0,0.0,82,0.00,,,0.00,WUHU21623XXSP,2013-03-04 15:10:00,
2013-03-04 09:15:00,50.5,44.9,30.18,North,0,0.0,0.0,81,0.00,,,0.00,WUHU21623XXSP,2013-03-04 15:15:00,
2013-03-04 09:20:00,51.6,45.3,30.18,North,0,0.0,0.0,79,0.00,,,0.00,WUHU21623XXSP,2013-03-04 15:20:00,
2013-03-04 09:25:00,52.3,45.3,30.18,North,0,0.0,0.0,78,0.00,,,0.00,WUHU21623XXSP,2013-03-04 15:25:00,
2013-03-04 09:30:00,52.9,45.5,30.18,North,0,0.0,0.0,76,0.00,,,0.00,WUHU21623XXSP,2013-03-04 15:30:00,
2013-03-04 09:35:00,53.8,46.0,30.18,North,0,0.0,0.0,75,0.00,,,0.00,WUHU21623XXSP,2013-03-04 15:35:00,
2013-03-04 09:40:00,54.1,46.2,30.18,North,0,0.0,0.0,74,0.00,,,0.00,WUHU21623XXSP,2013-03-04 15:40:00,
2013-03-04 09:45:00,54.7,46.2,30.18,North,0,0.0,0.0,73,0.00,,,0.00,WUHU21623XXSP,2013-03-04 15:45:00,
2013-03-04 09:50:00,55.2,46.7,30.18,North,0,0.0,0.0,73,0.00,,,0.00,WUHU21623XXSP,2013-03-04 15:50:00,
2013-03-04 09:55:00,55.6,46.7,30.18,North,0,0.0,0.0,72,0.00,,,0.00,WUHU21623XXSP,2013-03-04 15:55:00,
2013-03-04 10:00:00,56.1,46.9,30.18,North,0,0.0,0.0,71,0.00,,,0.00,WUHU21623XXSP,2013-03-04 16:00:00,
2013-03-04 10:05:00,56.5,46.8,30.18,North,0,0.0,0.0,70,0.00,,,0.00,WUHU21623XXSP,2013-03-04 16:05:00,
2013-03-04 10:10:00,57.0,47.3,30.18,North,0,0.0,0.0,70,0.00,,,0.00,WUHU21623XXSP,2013-03-04 16:10:00,
2013-03-04 10:15:00,57.4,47.7,30.18,North,0,0.0,0.0,70,0.00,,,0.00,WUHU21623XXSP,2013-03-04 16:15:00,
2013-03-04 10:20:00,57.9,47.8,30.18,North,0,0.0,0.0,69,0.00,,,0.00,WUHU21623XXSP,2013-03-04 16:20:00,
2013-03-04 10:25:00,58.3,47.7,30.18,North,0,0.0,0.0,68,0.00,,,0.00,WUHU21623XXSP,2013-03-04 16:25:00,
2013-03-04 10:30:00,58.6,47.7,30.18,North,0,0.0,0.0,67,0.00,,,0.00,WUHU21623XXSP,2013-03-04 16:30:00,
2013-03-04 10:35:00,59.0,47.6,30.18,North,0,0.0,0.0,66,0.00,,,0.00,WUHU21623XXSP,2013-03-04 16:35:00,
2013-03-04 10:40:00,59.4,48.0,30.18,North,0,0.0,0.0,66,0.00,,,0.00,WUHU21623XXSP,2013-03-04 16:40:00,
2013-03-04 10:45:00,59.7,47.9,30.18,North,0,0.0,0.0,65,0.00,,,0.00,WUHU21623XXSP,2013-03-04 16:45:00,
2013-03-04 10:50:00,60.1,48.3,30.18,North,0,0.0,0.0,65,0.00,,,0.00,WUHU21623XXSP,2013-03-04 16:50:00,
2013-03-04 10:55:00,60.4,48.2,30.18,North,0,0.0,0.0,64,0.00,,,0.00,WUHU21623XXSP,2013-03-04 16:55:00,
2013-03-04 11:00:00,60.6,48.4,30.18,North,0,0.0,0.0,64,0.00,,,0.00,WUHU21623XXSP,2013-03-04 17:00:00,
2013-03-04 11:05:00,61.2,48.5,30.18,North,0,0.0,0.0,63,0.00,,,0.00,WUHU21623XXSP,2013-03-04 17:05:00,
2013-03-04 11:10:00,61.5,48.3,30.17,North,0,0.0,0.0,63,0.00,,,0.00,WUHU21623XXSP,2013-03-04 17:10:00,
2013-03-04 11:15:00,61.9,49.2,30.17,North,0,0.0,0.0,63,0.00,,,0.00,WUHU21623XXSP,2013-03-04 17:15:00,
2013-03-04 11:20:00,62.8,49.6,30.17,North,0,0.0,0.0,62,0.00,,,0.00,WUHU21623XXSP,2013-03-04 17:20:00,
2013-03-04 11:25:00,63.3,49.9,30.17,North,0,0.0,0.0,62,0.00,,,0.00,WUHU21623XXSP,2013-03-04 17:25:00,
2013-03-04 11:30:00,64.0,50.3,30.17,North,0,0.0,0.0,61,0.00,,,0.00,WUHU21623XXSP,2013-03-04 17:30:00,
2013-03-04 11:35:00,64.8,50.1,30.16,North,0,0.0,0.0,59,0.00,,,0.00,WUHU21623XXSP,2013-03-04 17:35:00,
2013-03-04 11:40:00,65.3,50.6,30.16,North,0,0.0,0.0,59,0.00,,,0.00,WUHU21623XXSP,2013-03-04 17:40:00,
2013-03-04 11:45:00,65.8,51.1,30.16,North,0,0.0,0.0,59,0.00,,,0.00,WUHU21623XXSP,2013-03-04 17:45:00,
2013-03-04 11:50:00,66.2,50.8,30.16,North,0,0.0,0.0,58,0.00,,,0.00,WUHU21623XXSP,2013-03-04 17:50:00,
2013-03-04 11:55:00,66.4,50.5,30.15,North,0,0.0,0.0,57,0.00,,,0.00,WUHU21623XXSP,2013-03-04 17:55:00,
2013-03-04 12:00:00,66.6,50.8,30.15,North,0,0.0,0.0,57,0.00,,,0.00,WUHU21623XXSP,2013-03-04 18:00:00,
2013-03-04 12:05:00,66.7,50.5,30.15,North,0,0.0,0.0,56,0.00,,,0.00,WUHU21623XXSP,2013-03-04 18:05:00,
2013-03-04 12:10:00,66.9,50.7,30.14,North,0,0.0,0.0,56,0.00,,,0.00,WUHU21623XXSP,2013-03-04 18:10:00,
2013-03-04 12:15:00,67.1,50.8,30.14,North,0,0.0,0.0,56,0.00,,,0.00,WUHU21623XXSP,2013-03-04 18:15:00,
2013-03-04 12:20:00,67.6,50.4,30.14,North,0,0.0,0.0,54,0.00,,,0.00,WUHU21623XXSP,2013-03-04 18:20:00,
2013-03-04 12:25:00,67.6,50.4,30.14,North,0,0.0,0.0,54,0.00,,,0.00,WUHU21623XXSP,2013-03-04 18:25:00,
2013-03-04 12:29:00,67.8,50.5,30.13,North,0,0.0,0.0,54,0.00,,,0.00,WUHU21623XXSP,2013-03-04 18:29:00,
2013-03-04 12:30:00,67.8,50.5,30.13,North,0,0.0,0.0,54,0.00,,,0.00,WUHU21623XXSP,2013-03-04 18:30:00,
2013-03-04 12:35:00,68.0,50.7,30.13,North,0,0.0,0.0,54,0.00,,,0.00,WUHU21623XXSP,2013-03-04 18:35:00,
2013-03-04 12:40:00,68.4,50.5,30.13,North,0,0.0,0.0,53,0.00,,,0.00,WUHU21623XXSP,2013-03-04 18:40:00,
2013-03-04 12:45:00,68.5,50.2,30.13,North,0,0.0,0.0,52,0.00,,,0.00,WUHU21623XXSP,2013-03-04 18:45:00,
2013-03-04 12:50:00,68.4,50.0,30.12,North,0,0.0,0.0,52,0.00,,,0.00,WUHU21623XXSP,2013-03-04 18:50:00,
2013-03-04 12:55:00,68.0,49.7,30.12,North,0,0.0,0.0,52,0.00,,,0.00,WUHU21623XXSP,2013-03-04 18:55:00,
2013-03-04 13:00:00,67.8,49.5,30.11,North,0,0.0,0.0,52,0.00,,,0.00,WUHU21623XXSP,2013-03-04 19:00:00,
2013-03-04 13:05:00,67.6,49.9,30.11,North,0,0.0,0.0,53,0.00,,,0.00,WUHU21623XXSP,2013-03-04 19:05:00,
2013-03-04 13:10:00,67.3,49.5,30.11,North,0,0.0,0.0,53,0.00,,,0.00,WUHU21623XXSP,2013-03-04 19:10:00,
2013-03-04 13:15:00,67.1,49.9,30.11,North,0,0.0,0.0,54,0.00,,,0.00,WUHU21623XXSP,2013-03-04 19:15:00,
2013-03-04 13:20:00,66.9,49.7,30.11,North,0,0.0,0.0,54,0.00,,,0.00,WUHU21623XXSP,2013-03-04 19:20:00,
2013-03-04 13:25:00,66.7,50.0,30.10,North,0,0.0,0.0,55,0.00,,,0.00,WUHU21623XXSP,2013-03-04 19:25:00,
2013-03-04 13:30:00,66.4,49.7,30.10,North,0,0.0,0.0,55,0.00,,,0.00,WUHU21623XXSP,2013-03-04 19:30:00,
2013-03-04 13:35:00,66.6,49.9,30.10,North,0,0.0,0.0,55,0.00,,,0.00,WUHU21623XXSP,2013-03-04 19:35:00,
2013-03-04 13:40:00,66.6,49.9,30.10,North,0,0.0,0.0,55,0.00,,,0.00,WUHU21623XXSP,2013-03-04 19:40:00,
2013-03-04 13:45:00,66.7,50.0,30.09,North,0,0.0,0.0,55,0.00,,,0.00,WUHU21623XXSP,2013-03-04 19:45:00,
2013-03-04 13:50:00,66.7,50.5,30.09,North,0,0.0,0.0,56,0.00,,,0.00,WUHU21623XXSP,2013-03-04 19:50:00,
2013-03-04 13:55:00,66.9,50.7,30.09,North,0,0.0,0.0,56,0.00,,,0.00,WUHU21623XXSP,2013-03-04 19:55:00,
2013-03-04 14:00:00,67.1,50.8,30.09,North,0,0.0,0.0,56,0.00,,,0.00,WUHU21623XXSP,2013-03-04 20:00:00,
2013-03-04 14:05:00,67.3,50.5,30.09,North,0,0.0,0.0,55,0.00,,,0.00,WUHU21623XXSP,2013-03-04 20:05:00,
2013-03-04 14:10:00,67.3,50.5,30.09,North,0,0.0,0.0,55,0.00,,,0.00,WUHU21623XXSP,2013-03-04 20:10:00,
2013-03-04 14:15:00,66.9,50.7,30.09,North,0,0.0,0.0,56,0.00,,,0.00,WUHU21623XXSP,2013-03-04 20:15:00,
2013-03-04 14:20:00,66.7,50.5,30.08,North,0,0.0,0.0,56,0.00,,,0.00,WUHU21623XXSP,2013-03-04 20:20:00,
2013-03-04 14:25:00,66.6,50.8,30.08,North,0,0.0,0.0,57,0.00,,,0.00,WUHU21623XXSP,2013-03-04 20:25:00,
2013-03-04 14:30:00,66.7,51.0,30.08,North,0,0.0,0.0,57,0.00,,,0.00,WUHU21623XXSP,2013-03-04 20:30:00,
2013-03-04 14:35:00,66.9,51.2,30.08,North,0,0.0,0.0,57,0.00,,,0.00,WUHU21623XXSP,2013-03-04 20:35:00,
2013-03-04 14:40:00,66.9,51.2,30.08,North,0,0.0,0.0,57,0.00,,,0.00,WUHU21623XXSP,2013-03-04 20:40:00,
2013-03-04 14:45:00,67.1,51.3,30.08,North,0,0.0,0.0,57,0.00,,,0.00,WUHU21623XXSP,2013-03-04 20:45:00,
2013-03-04 14:50:00,67.6,51.8,30.08,North,0,0.0,0.0,57,0.00,,,0.00,WUHU21623XXSP,2013-03-04 20:50:00,
2013-03-04 14:55:00,67.8,52.0,30.08,North,0,0.0,0.0,57,0.00,,,0.00,WUHU21623XXSP,2013-03-04 20:55:00,
2013-03-04 15:00:00,68.4,52.5,30.07,North,0,0.0,0.0,57,0.00,,,0.00,WUHU21623XXSP,2013-03-04 21:00:00,
2013-03-04 15:05:00,68.7,52.3,30.07,North,0,0.0,0.0,56,0.00,,,0.00,WUHU21623XXSP,2013-03-04 21:05:00,
2013-03-04 15:10:00,68.7,52.3,30.07,North,0,0.0,0.0,56,0.00,,,0.00,WUHU21623XXSP,2013-03-04 21:10:00,
2013-03-04 15:15:00,68.9,52.5,30.07,North,0,0.0,0.0,56,0.00,,,0.00,WUHU21623XXSP,2013-03-04 21:15:00,
2013-03-04 15:20:00,68.5,52.3,30.06,North,0,0.0,0.0,57,0.00,,,0.00,WUHU21623XXSP,2013-03-04 21:20:00,
2013-03-04 15:25:00,68.7,52.3,30.06,North,0,0.0,0.0,56,0.00,,,0.00,WUHU21623XXSP,2013-03-04 21:25:00,
2013-03-04 15:30:00,68.9,52.3,30.07,North,0,0.0,0.0,56,0.00,,,0.00,WUHU21623XXSP,2013-03-04 21:30:00,
2013-03-04 15:35:00,68.9,52.5,30.06,North,0,0.0,0.0,56,0.00,,,0.00,WUHU21623XXSP,2013-03-04 21:35:00,
2013-03-04 15:40:00,68.7,52.3,30.06,North,0,0.0,0.0,56,0.00,,,0.00,WUHU21623XXSP,2013-03-04 21:40:00,
2013-03-04 15:45:00,68.2,51.8,30.06,North,0,0.0,0.0,56,0.00,,,0.00,WUHU21623XXSP,2013-03-04 21:45:00,
2013-03-04 15:50:00,67.3,51.5,30.06,North,0,0.0,0.0,57,0.00,,,0.00,WUHU21623XXSP,2013-03-04 21:50:00,
2013-03-04 15:55:00,66.9,51.8,30.06,North,0,0.0,0.0,58,0.00,,,0.00,WUHU21623XXSP,2013-03-04 21:55:00,
2013-03-04 16:00:00,66.4,51.7,30.06,North,0,0.0,0.0,59,0.00,,,0.00,WUHU21623XXSP,2013-03-04 22:00:00,
2013-03-04 16:05:00,65.5,51.3,30.07,North,0,0.0,0.0,60,0.00,,,0.00,WUHU21623XXSP,2013-03-04 22:05:00,
2013-03-04 16:10:00,65.1,50.9,30.06,North,0,0.0,0.0,60,0.00,,,0.00,WUHU21623XXSP,2013-03-04 22:10:00,
2013-03-04 16:15:00,64.6,50.8,30.06,North,0,0.0,0.0,61,0.00,,,0.00,WUHU21623XXSP,2013-03-04 22:15:00,
2013-03-04 16:20:00,64.0,50.7,30.06,North,0,0.0,0.0,62,0.00,,,0.00,WUHU21623XXSP,2013-03-04 22:20:00,
2013-03-04 16:25:00,63.7,50.8,30.06,North,0,0.0,0.0,63,0.00,,,0.00,WUHU21623XXSP,2013-03-04 22:25:00,
2013-03-04 16:30:00,63.5,51.1,30.05,North,0,0.0,0.0,64,0.00,,,0.00,WUHU21623XXSP,2013-03-04 22:30:00,
2013-03-04 16:35:00,63.3,50.9,30.05,North,0,0.0,0.0,64,0.00,,,0.00,WUHU21623XXSP,2013-03-04 22:35:00,
2013-03-04 16:40:00,63.0,51.0,30.05,North,0,0.0,0.0,65,0.00,,,0.00,WUHU21623XXSP,2013-03-04 22:40:00,
2013-03-04 16:45:00,62.8,50.8,30.05,North,0,0.0,0.0,65,0.00,,,0.00,WUHU21623XXSP,2013-03-04 22:45:00,
2013-03-04 16:50:00,62.4,50.9,30.05,North,0,0.0,0.0,66,0.00,,,0.00,WUHU21623XXSP,2013-03-04 22:50:00,
2013-03-04 16:55:00,62.2,51.1,30.06,North,0,0.0,0.0,67,0.00,,,0.00,WUHU21623XXSP,2013-03-04 22:55:00,
2013-03-04 17:00:00,62.1,51.1,30.06,North,0,0.0,0.0,67,0.00,,,0.00,WUHU21623XXSP,2013-03-04 23:00:00,
2013-03-04 17:05:00,61.9,51.2,30.06,North,0,0.0,0.0,68,0.00,,,0.00,WUHU21623XXSP,2013-03-04 23:05:00,
2013-03-04 17:10:00,61.9,51.2,30.06,North,0,0.0,0.0,68,0.00,,,0.00,WUHU21623XXSP,2013-03-04 23:10:00,
2013-03-04 17:15:00,62.1,51.6,30.06,North,0,0.0,0.0,69,0.00,,,0.00,WUHU21623XXSP,2013-03-04 23:15:00,
2013-03-04 17:20:00,61.9,51.6,30.06,North,0,0.0,0.0,69,0.00,,,0.00,WUHU21623XXSP,2013-03-04 23:20:00,
2013-03-04 17:25:00,61.9,51.2,30.06,North,0,0.0,0.0,68,0.00,,,0.00,WUHU21623XXSP,2013-03-04 23:25:00,
2013-03-04 17:30:00,61.5,51.5,30.06,North,0,0.0,0.0,69,0.00,,,0.00,WUHU21623XXSP,2013-03-04 23:30:00,
2013-03-04 17:35:00,61.3,51.3,30.06,North,0,0.0,0.0,69,0.00,,,0.00,WUHU21623XXSP,2013-03-04 23:35:00,
2013-03-04 17:40:00,61.2,51.4,30.06,North,0,0.0,0.0,70,0.00,,,0.00,WUHU21623XXSP,2013-03-04 23:40:00,
2013-03-04 17:45:00,60.8,51.4,30.07,North,0,0.0,0.0,70,0.00,,,0.00,WUHU21623XXSP,2013-03-04 23:45:00,
2013-03-04 17:50:00,60.6,50.9,30.07,North,0,0.0,0.0,70,0.00,,,0.00,WUHU21623XXSP,2013-03-04 23:50:00,
2013-03-04 17:55:00,60.6,50.9,30.06,North,0,0.0,0.0,70,0.00,,,0.00,WUHU21623XXSP,2013-03-04 23:55:00,
2013-03-04 18:00:00,60.6,50.9,30.06,North,0,0.0,0.0,70,0.00,,,0.00,WUHU21623XXSP,2013-03-05 00:00:00,
2013-03-04 18:05:00,60.6,50.9,30.06,North,0,0.0,0.0,70,0.00,,,0.00,WUHU21623XXSP,2013-03-05 00:05:00,
2013-03-04 18:10:00,60.6,50.9,30.06,North,0,0.0,0.0,70,0.00,,,0.00,WUHU21623XXSP,2013-03-05 00:10:00,
2013-03-04 18:22:00,59.0,51.1,30.06,North,0,0.0,0.0,75,0.00,,,0.00,WUHU21623XXSP,2013-03-05 00:22:00,
2013-03-04 18:27:00,58.8,50.9,30.05,North,0,0.0,0.0,75,0.00,,,0.00,WUHU21623XXSP,2013-03-05 00:27:00,
2013-03-04 18:32:00,58.6,50.7,30.04,North,0,0.0,0.0,76,0.00,,,0.00,WUHU21623XXSP,2013-03-05 00:32:00,
2013-03-04 18:37:00,58.3,51.1,30.04,North,0,0.0,0.0,77,0.00,,,0.00,WUHU21623XXSP,2013-03-05 00:37:00,
2013-03-04 18:42:00,58.1,50.5,30.05,North,0,0.0,0.0,76,0.00,,,0.00,WUHU21623XXSP,2013-03-05 00:42:00,
2013-03-04 18:47:00,57.9,50.7,30.05,North,0,0.0,0.0,77,0.00,,,0.00,WUHU21623XXSP,2013-03-05 00:47:00,
2013-03-04 18:52:00,57.9,50.7,30.05,North,0,0.0,0.0,77,0.00,,,0.00,WUHU21623XXSP,2013-03-05 00:52:00,
2013-03-04 18:57:00,57.7,50.9,30.05,North,0,0.0,0.0,78,0.00,,,0.00,WUHU21623XXSP,2013-03-05 00:57:00,
2013-03-04 19:02:00,57.7,50.9,30.05,North,0,0.0,0.0,78,0.00,,,0.00,WUHU21623XXSP,2013-03-05 01:02:00,
2013-03-04 19:07:00,57.6,51.1,30.04,North,0,0.0,0.0,79,0.00,,,0.00,WUHU21623XXSP,2013-03-05 01:07:00,
2013-03-04 19:12:00,57.6,51.1,30.04,North,0,0.0,0.0,79,0.00,,,0.00,WUHU21623XXSP,2013-03-05 01:12:00,
2013-03-04 19:17:00,57.4,50.9,30.04,North,0,0.0,0.0,79,0.00,,,0.00,WUHU21623XXSP,2013-03-05 01:17:00,
2013-03-04 19:22:00,57.4,50.9,30.04,North,0,0.0,0.0,79,0.00,,,0.00,WUHU21623XXSP,2013-03-05 01:22:00,
2013-03-04 19:27:00,57.4,50.9,30.03,North,0,0.0,0.0,79,0.00,,,0.00,WUHU21623XXSP,2013-03-05 01:27:00,
2013-03-04 19:32:00,57.4,50.9,30.04,North,0,0.0,0.0,80,0.00,,,0.00,WUHU21623XXSP,2013-03-05 01:32:00,
2013-03-04 19:37:00,57.2,51.1,30.03,North,0,0.0,0.0,80,0.00,,,0.00,WUHU21623XXSP,2013-03-05 01:37:00,
2013-03-04 19:42:00,57.2,51.1,30.03,North,0,0.0,0.0,80,0.00,,,0.00,WUHU21623XXSP,2013-03-05 01:42:00,
2013-03-04 19:47:00,57.0,50.9,30.03,North,0,0.0,0.0,80,0.00,,,0.00,WUHU21623XXSP,2013-03-05 01:47:00,
2013-03-04 19:52:00,57.0,50.9,30.03,North,0,0.0,0.0,80,0.00,,,0.00,WUHU21623XXSP,2013-03-05 01:52:00,
2013-03-04 19:57:00,57.0,51.2,30.03,North,0,0.0,0.0,81,0.00,,,0.00,WUHU21623XXSP,2013-03-05 01:57:00,
2013-03-04 20:02:00,57.0,51.2,30.03,North,0,0.0,0.0,81,0.00,,,0.00,WUHU21623XXSP,2013-03-05 02:02:00,
2013-03-04 20:07:00,56.8,51.4,30.03,North,0,0.0,0.0,82,0.00,,,0.00,WUHU21623XXSP,2013-03-05 02:07:00,
2013-03-04 20:12:00,56.8,51.4,30.03,North,0,0.0,0.0,82,0.00,,,0.00,WUHU21623XXSP,2013-03-05 02:12:00,
2013-03-04 20:17:00,56.8,51.4,30.03,North,0,0.0,0.0,82,0.00,,,0.00,WUHU21623XXSP,2013-03-05 02:17:00,
2013-03-04 20:22:00,56.8,51.4,30.03,North,0,0.0,0.0,82,0.00,,,0.00,WUHU21623XXSP,2013-03-05 02:22:00,
2013-03-04 20:27:00,56.7,51.2,30.03,North,0,0.0,0.0,82,0.00,,,0.00,WUHU21623XXSP,2013-03-05 02:27:00,
2013-03-04 20:32:00,56.5,51.0,30.03,North,0,0.0,0.0,82,0.00,,,0.00,WUHU21623XXSP,2013-03-05 02:32:00,
2013-03-04 20:37:00,56.5,51.0,30.03,North,0,0.0,0.0,82,0.00,,,0.00,WUHU21623XXSP,2013-03-05 02:37:00,
2013-03-04 20:42:00,56.5,51.0,30.03,North,0,0.0,0.0,82,0.00,,,0.00,WUHU21623XXSP,2013-03-05 02:42:00,
2013-03-04 20:47:00,56.3,51.0,30.02,North,0,0.0,0.0,82,0.00,,,0.00,WUHU21623XXSP,2013-03-05 02:47:00,
2013-03-04 20:52:00,56.3,50.8,30.03,North,0,0.0,0.0,82,0.00,,,0.00,WUHU21623XXSP,2013-03-05 02:52:00,
2013-03-04 20:57:00,56.3,50.8,30.03,North,0,0.0,0.0,82,0.00,,,0.00,WUHU21623XXSP,2013-03-05 02:57:00,
2013-03-04 21:02:00,56.1,50.6,30.03,North,0,0.0,0.0,82,0.00,,,0.00,WUHU21623XXSP,2013-03-05 03:02:00,
2013-03-04 21:07:00,56.1,50.6,30.03,North,0,0.0,0.0,82,0.00,,,0.00,WUHU21623XXSP,2013-03-05 03:07:00,
2013-03-04 21:12:00,56.1,50.6,30.03,North,0,0.0,0.0,82,0.00,,,0.00,WUHU21623XXSP,2013-03-05 03:12:00,
2013-03-04 21:17:00,55.9,50.6,30.03,North,0,0.0,0.0,82,0.00,,,0.00,WUHU21623XXSP,2013-03-05 03:17:00,
2013-03-04 21:22:00,55.9,50.5,30.03,North,0,0.0,0.0,82,0.00,,,0.00,WUHU21623XXSP,2013-03-05 03:22:00,
2013-03-04 21:27:00,55.9,50.5,30.03,North,0,0.0,0.0,82,0.00,,,0.00,WUHU21623XXSP,2013-03-05 03:27:00,
2013-03-04 21:32:00,55.9,50.5,30.03,North,0,0.0,0.0,82,0.00,,,0.00,WUHU21623XXSP,2013-03-05 03:32:00,
2013-03-04 21:37:00,55.9,50.5,30.03,North,0,0.0,0.0,82,0.00,,,0.00,WUHU21623XXSP,2013-03-05 03:37:00,
2013-03-04 21:42:00,55.9,50.5,30.03,North,0,0.0,0.0,82,0.00,,,0.00,WUHU21623XXSP,2013-03-05 03:42:00,
2013-03-04 21:47:00,55.6,50.5,30.03,North,0,0.0,0.0,82,0.00,,,0.00,WUHU21623XXSP,2013-03-05 03:47:00,
2013-03-04 21:52:00,55.2,49.7,30.03,North,0,0.0,0.0,82,0.00,,,0.00,WUHU21623XXSP,2013-03-05 03:52:00,
2013-03-04 21:57:00,55.2,49.7,30.03,North,0,0.0,0.0,82,0.00,,,0.00,WUHU21623XXSP,2013-03-05 03:57:00,
2013-03-04 22:02:00,55.0,49.6,30.02,North,0,0.0,0.0,82,0.00,,,0.00,WUHU21623XXSP,2013-03-05 04:02:00,
2013-03-04 22:07:00,54.9,49.9,30.02,North,0,0.0,0.0,83,0.00,,,0.00,WUHU21623XXSP,2013-03-05 04:07:00,
2013-03-04 22:12:00,54.7,49.6,30.02,North,0,0.0,0.0,83,0.00,,,0.00,WUHU21623XXSP,2013-03-05 04:12:00,
2013-03-04 22:17:00,54.7,49.6,30.02,North,0,0.0,0.0,83,0.00,,,0.00,WUHU21623XXSP,2013-03-05 04:17:00,
2013-03-04 22:22:00,54.3,49.4,30.02,North,0,0.0,0.0,83,0.00,,,0.00,WUHU21623XXSP,2013-03-05 04:22:00,
2013-03-04 22:27:00,54.1,49.1,30.02,North,0,0.0,0.0,83,0.00,,,0.00,WUHU21623XXSP,2013-03-05 04:27:00,
2013-03-04 22:32:00,54.1,49.1,30.02,North,0,0.0,0.0,83,0.00,,,0.00,WUHU21623XXSP,2013-03-05 04:32:00,
2013-03-04 22:37:00,53.8,48.9,30.03,North,0,0.0,0.0,83,0.00,,,0.00,WUHU21623XXSP,2013-03-05 04:37:00,
2013-03-04 22:42:00,53.8,48.7,30.02,North,0,0.0,0.0,83,0.00,,,0.00,WUHU21623XXSP,2013-03-05 04:42:00,
2013-03-04 22:47:00,53.8,48.7,30.01,North,0,0.0,0.0,83,0.00,,,0.00,WUHU21623XXSP,2013-03-05 04:47:00,
2013-03-04 22:52:00,53.4,48.7,30.01,North,0,0.0,0.0,84,0.00,,,0.00,WUHU21623XXSP,2013-03-05 04:52:00,
2013-03-04 22:57:00,53.2,48.5,30.01,North,0,0.0,0.0,84,0.00,,,0.00,WUHU21623XXSP,2013-03-05 04:57:00,
2013-03-04 23:00:00,53.2,48.5,30.02,North,0,0.0,0.0,84,0.00,,,0.00,WUHU21623XXSP,2013-03-05 05:00:00,
2013-03-04 23:05:00,53.2,48.5,30.02,North,0,0.0,0.0,84,0.00,,,0.00,WUHU21623XXSP,2013-03-05 05:05:00,
2013-03-04 23:10:00,53.2,48.5,30.01,North,0,0.0,0.0,84,0.00,,,0.00,WUHU21623XXSP,2013-03-05 05:10:00,
2013-03-04 23:15:00,53.2,48.8,30.01,North,0,0.0,0.0,85,0.00,,,0.00,WUHU21623XXSP,2013-03-05 05:15:00,
2013-03-04 23:20:00,53.4,49.3,30.00,North,0,0.0,0.0,86,0.00,,,0.00,WUHU21623XXSP,2013-03-05 05:20:00,
2013-03-04 23:25:00,53.8,49.6,30.00,North,0,0.0,0.0,87,0.00,,,0.00,WUHU21623XXSP,2013-03-05 05:25:00,
2013-03-04 23:30:00,54.1,50.1,30.00,North,0,0.0,0.0,87,0.00,,,0.00,WUHU21623XXSP,2013-03-05 05:30:00,
2013-03-04 23:35:00,54.7,50.7,30.00,North,0,0.0,0.0,87,0.00,,,0.00,WUHU21623XXSP,2013-03-05 05:35:00,
2013-03-04 23:40:00,55.2,51.4,29.99,North,0,0.0,0.0,87,0.00,,,0.00,WUHU21623XXSP,2013-03-05 05:40:00,
2013-03-04 23:45:00,55.8,51.4,29.99,North,0,0.0,0.0,86,0.00,,,0.00,WUHU21623XXSP,2013-03-05 05:45:00,
2013-03-04 23:50:00,56.5,52.3,29.99,North,0,0.0,0.0,86,0.00,,,0.00,WUHU21623XXSP,2013-03-05 05:50:00,
2013-03-04 23:55:00,57.0,52.3,29.99,North,0,0.0,0.0,86,0.00,,,0.00,WUHU21623XXSP,2013-03-05 05:55:00,